Time;durP1;ratioP1;P1;durP2;ratioP2;P2;SDS_P1;SDS_P2;PMS_P1;PMS_P2;Temp;Humidity;BMP_temperature;BMP_pressure;BME280_temperature;BME280_humidity;BME280_pressure;Samples;Min_cycle;Max_cycle;Signal;HPM_P1;HPM_P2
2022/11/09 00:01:20;;;;;;;4.95;1.52;;;12.70;99.90;;;;;;5057848;28;20048;-66
2022/11/09 00:03:46;;;;;;;5.40;1.73;;;12.70;99.90;;;;;;5065016;28;20041;-66
2022/11/09 00:06:13;;;;;;;5.28;1.92;;;12.70;99.90;;;;;;5062314;28;20032;-66
2022/11/09 00:08:40;;;;;;;6.93;1.90;;;12.70;99.90;;;;;;5058488;28;20037;-65
2022/11/09 00:11:10;;;;;;;7.63;1.55;;;12.70;99.90;;;;;;5057882;28;20036;-65
2022/11/09 00:13:40;;;;;;;6.43;1.80;;;12.70;99.90;;;;;;5060602;28;20048;-66
2022/11/09 00:16:11;;;;;;;7.45;1.38;;;12.70;99.90;;;;;;5063495;28;20044;-66
2022/11/09 00:18:37;;;;;;;8.73;1.60;;;12.60;99.90;;;;;;5057077;28;20407;-66
2022/11/09 00:21:08;;;;;;;6.53;1.75;;;12.70;99.90;;;;;;5063184;28;20048;-65
2022/11/09 00:23:34;;;;;;;5.50;1.50;;;12.70;99.90;;;;;;5059368;28;20083;-65
2022/11/09 00:26:02;;;;;;;6.93;1.77;;;12.60;99.90;;;;;;5065142;28;20357;-66
2022/11/09 00:28:28;;;;;;;3.67;1.50;;;12.70;99.90;;;;;;5059377;28;20476;-66
2022/11/09 00:31:05;;;;;;;6.75;1.75;;;12.60;99.90;;;;;;5061526;28;20044;-66
2022/11/09 00:33:32;;;;;;;6.28;1.58;;;12.60;99.90;;;;;;5039836;28;20490;-65
2022/11/09 00:35:58;;;;;;;5.90;1.58;;;12.60;99.90;;;;;;5029444;28;20045;-66
2022/11/09 00:38:23;;;;;;;7.75;1.77;;;12.50;99.90;;;;;;5062607;28;20374;-66
2022/11/09 00:40:49;;;;;;;5.78;1.83;;;12.50;99.90;;;;;;5062699;28;20127;-65
2022/11/09 00:43:15;;;;;;;6.47;1.58;;;12.40;99.90;;;;;;5056743;28;20103;-66
2022/11/09 00:45:41;;;;;;;5.60;1.35;;;12.40;99.90;;;;;;5064440;28;20126;-66
2022/11/09 00:48:07;;;;;;;4.40;1.02;;;12.40;99.90;;;;;;5064539;28;20076;-66
2022/11/09 00:50:33;;;;;;;6.57;1.60;;;12.50;99.90;;;;;;5059699;28;20044;-66
2022/11/09 00:53:00;;;;;;;4.90;1.33;;;12.50;99.90;;;;;;5057040;28;20044;-66
2022/11/09 00:55:26;;;;;;;8.40;1.52;;;12.50;99.90;;;;;;5062213;28;20364;-66
2022/11/09 00:57:52;;;;;;;9.13;1.80;;;12.50;99.90;;;;;;5064702;28;20094;-66
2022/11/09 01:00:19;;;;;;;6.03;1.20;;;12.50;99.90;;;;;;5059995;28;20365;-66
2022/11/09 01:02:45;;;;;;;5.25;1.40;;;12.50;99.90;;;;;;5061178;28;20047;-66
2022/11/09 01:05:11;;;;;;;7.03;2.03;;;12.50;99.90;;;;;;5042178;28;20044;-66
2022/11/09 01:07:37;;;;;;;4.88;1.63;;;12.50;99.90;;;;;;5038060;28;20059;-66
2022/11/09 01:10:05;;;;;;;5.13;1.75;;;12.50;99.90;;;;;;5054059;28;20072;-66
2022/11/09 01:12:31;;;;;;;5.82;1.90;;;12.50;99.90;;;;;;5060061;28;20040;-66
2022/11/09 01:14:57;;;;;;;9.75;2.25;;;12.40;99.90;;;;;;5055654;28;20421;-65
2022/11/09 01:17:23;;;;;;;5.80;1.70;;;12.40;99.90;;;;;;5058876;28;20120;-66
2022/11/09 01:19:49;;;;;;;6.03;1.90;;;12.40;99.90;;;;;;5058072;28;20043;-66
2022/11/09 01:22:16;;;;;;;6.75;1.45;;;12.30;99.90;;;;;;5062309;28;20043;-66
2022/11/09 01:24:41;;;;;;;5.60;1.60;;;12.30;99.90;;;;;;5022129;28;20083;-66
2022/11/09 01:27:07;;;;;;;6.07;1.42;;;12.20;99.90;;;;;;5055486;28;20072;-66
2022/11/09 01:29:33;;;;;;;5.25;1.73;;;12.20;99.90;;;;;;5061309;28;20044;-66
2022/11/09 01:31:59;;;;;;;7.72;1.83;;;12.10;99.90;;;;;;5049549;28;20032;-66
2022/11/09 01:34:27;;;;;;;5.70;1.73;;;12.00;99.90;;;;;;5060525;28;20054;-66
2022/11/09 01:36:53;;;;;;;8.15;1.67;;;12.00;99.90;;;;;;5045636;28;20095;-66
2022/11/09 01:39:19;;;;;;;4.35;1.60;;;12.00;99.90;;;;;;5063682;28;20076;-66
2022/11/09 01:41:46;;;;;;;6.65;1.77;;;11.90;99.90;;;;;;5066112;28;20499;-66
2022/11/09 01:44:11;;;;;;;6.28;1.83;;;11.90;99.90;;;;;;5059570;28;20425;-66
2022/11/09 01:46:54;;;;;;;5.95;1.75;;;11.80;99.90;;;;;;5059372;28;20044;-66
2022/11/09 01:49:39;;;;;;;6.65;1.60;;;11.80;99.90;;;;;;5063422;28;20545;-66
2022/11/09 01:52:07;;;;;;;;;;;11.80;99.90;;;;;;5062129;28;20380;-67
2022/11/09 01:54:41;;;;;;;9.68;1.80;;;11.70;99.90;;;;;;5062488;28;19968;-66
2022/11/09 01:57:17;;;;;;;6.72;1.95;;;11.70;99.90;;;;;;5062249;28;20028;-66
2022/11/09 01:59:47;;;;;;;9.45;1.98;;;11.70;99.90;;;;;;5064021;28;20049;-66
2022/11/09 02:02:13;;;;;;;5.30;1.77;;;11.70;99.90;;;;;;5064431;28;20413;-66
2022/11/09 02:04:54;;;;;;;7.18;2.42;;;11.70;99.90;;;;;;5059711;28;20037;-66
2022/11/09 02:07:22;;;;;;;6.32;1.80;;;11.70;99.90;;;;;;5069463;28;20422;-66
2022/11/09 02:09:57;;;;;;;6.18;1.83;;;11.70;99.90;;;;;;5062287;28;20045;-66
2022/11/09 02:12:24;;;;;;;7.65;2.45;;;11.70;99.90;;;;;;5044689;28;20471;-66
2022/11/09 02:14:52;;;;;;;8.82;2.03;;;11.70;99.90;;;;;;5064172;28;20189;-66
2022/11/09 02:17:19;;;;;;;6.40;2.72;;;11.60;99.90;;;;;;5061646;28;20068;-66
2022/11/09 02:19:45;;;;;;;5.55;1.65;;;11.60;99.90;;;;;;5062362;28;20041;-66
2022/11/09 02:22:11;;;;;;;6.13;1.83;;;11.70;99.90;;;;;;5057452;28;20033;-65
2022/11/09 02:24:37;;;;;;;5.63;1.60;;;11.70;99.90;;;;;;5064476;28;20056;-66
2022/11/09 02:27:05;;;;;;;7.65;1.80;;;11.70;99.90;;;;;;5046235;28;20674;-66
2022/11/09 02:29:40;;;;;;;11.88;2.67;;;11.70;99.90;;;;;;5064301;28;20496;-66
2022/11/09 02:32:24;;;;;;;9.48;1.52;;;11.70;99.90;;;;;;5058152;28;20051;-65
2022/11/09 02:34:50;;;;;;;7.50;1.58;;;11.70;99.90;;;;;;5046798;28;20048;-66
2022/11/09 02:37:36;;;;;;;6.57;1.95;;;11.60;99.90;;;;;;5049891;28;20097;-66
2022/11/09 02:40:06;;;;;;;9.18;2.33;;;11.60;99.90;;;;;;5063731;28;20624;-65
2022/11/09 02:42:32;;;;;;;8.07;2.15;;;11.60;99.90;;;;;;5060932;28;20028;-66
2022/11/09 02:44:59;;;;;;;5.53;1.50;;;11.60;99.90;;;;;;5046817;28;20126;-66
2022/11/09 02:47:25;;;;;;;7.75;1.50;;;11.60;99.90;;;;;;5043368;28;20132;-66
2022/11/09 02:49:51;;;;;;;10.02;1.98;;;11.60;99.90;;;;;;5063830;28;20097;-66
2022/11/09 02:52:17;;;;;;;7.07;1.65;;;11.60;99.90;;;;;;5063051;28;20464;-66
2022/11/09 02:54:43;;;;;;;7.47;1.88;;;11.60;99.90;;;;;;5049032;28;20119;-65
2022/11/09 02:57:09;;;;;;;6.22;1.73;;;11.50;99.90;;;;;;5060670;28;20043;-66
2022/11/09 02:59:35;;;;;;;7.07;1.90;;;11.50;99.90;;;;;;5064232;28;20036;-67
2022/11/09 03:02:00;;;;;;;9.50;1.50;;;11.50;99.90;;;;;;5061863;28;20041;-66
2022/11/09 03:04:26;;;;;;;6.60;1.70;;;11.40;99.90;;;;;;5059926;28;20036;-66
2022/11/09 03:06:52;;;;;;;11.90;1.85;;;11.40;99.90;;;;;;5044146;28;20075;-66
2022/11/09 03:09:18;;;;;;;10.00;1.60;;;11.40;99.90;;;;;;5061338;28;20037;-65
2022/11/09 03:11:44;;;;;;;6.95;1.67;;;11.40;99.90;;;;;;5058089;28;20483;-66
2022/11/09 03:14:10;;;;;;;7.15;1.65;;;11.40;99.90;;;;;;5064325;28;20083;-66
2022/11/09 03:16:37;;;;;;;7.75;1.50;;;11.40;99.90;;;;;;5060954;28;20119;-66
2022/11/09 03:19:02;;;;;;;10.18;1.60;;;11.40;99.90;;;;;;5045104;28;20036;-66
2022/11/09 03:21:28;;;;;;;9.25;1.83;;;11.30;99.90;;;;;;5059597;28;20392;-66
2022/11/09 03:23:54;;;;;;;8.00;1.60;;;11.30;99.90;;;;;;5061737;28;20067;-66
2022/11/09 03:26:20;;;;;;;6.63;1.80;;;11.30;99.90;;;;;;5061169;28;20045;-66
2022/11/09 03:28:46;;;;;;;11.25;1.80;;;11.30;99.90;;;;;;5058648;28;20362;-66
2022/11/09 03:31:13;;;;;;;11.38;1.73;;;11.20;99.90;;;;;;5057430;28;20048;-66
2022/11/09 03:33:38;;;;;;;9.38;1.85;;;11.20;99.90;;;;;;5065098;28;20068;-66
2022/11/09 03:36:05;;;;;;;7.30;1.52;;;11.10;99.90;;;;;;5061690;28;20491;-67
2022/11/09 03:38:31;;;;;;;8.52;1.70;;;11.10;99.90;;;;;;5058345;28;20106;-66
2022/11/09 03:40:58;;;;;;;6.60;1.70;;;11.10;99.90;;;;;;5058730;28;20484;-67
2022/11/09 03:43:24;;;;;;;12.65;2.10;;;11.00;99.90;;;;;;5044114;28;20048;-66
2022/11/09 03:45:50;;;;;;;7.68;1.48;;;11.00;99.90;;;;;;5046404;28;20036;-66
2022/11/09 03:48:16;;;;;;;11.05;1.95;;;11.00;99.90;;;;;;5054944;28;20037;-66
2022/11/09 03:50:42;;;;;;;8.77;1.58;;;11.00;99.90;;;;;;5060414;28;20385;-66
2022/11/09 03:53:09;;;;;;;11.68;1.90;;;11.00;99.90;;;;;;5043156;28;20044;-66
2022/11/09 03:55:36;;;;;;;10.55;1.90;;;11.00;99.90;;;;;;5058556;28;20037;-66
2022/11/09 03:58:03;;;;;;;9.13;1.83;;;11.00;99.90;;;;;;5044164;28;20119;-66
2022/11/09 04:00:29;;;;;;;5.45;1.40;;;11.10;99.90;;;;;;5061451;28;20044;-66
2022/11/09 04:02:55;;;;;;;10.70;1.55;;;11.10;99.90;;;;;;5049460;28;20507;-66
2022/11/09 04:05:21;;;;;;;6.63;1.85;;;11.20;99.90;;;;;;5057732;28;20029;-66
2022/11/09 04:07:52;;;;;;;7.60;1.58;;;11.20;99.90;;;;;;5062598;28;20112;-66
2022/11/09 04:10:19;;;;;;;7.82;1.35;;;11.20;99.90;;;;;;5040587;28;20040;-66
2022/11/09 04:12:45;;;;;;;6.93;1.70;;;11.20;99.90;;;;;;5062421;28;20044;-66
2022/11/09 04:15:11;;;;;;;5.88;1.55;;;11.20;99.90;;;;;;5061770;28;20555;-66
2022/11/09 04:17:37;;;;;;;9.15;2.10;;;11.20;99.90;;;;;;5058059;28;20048;-66
2022/11/09 04:20:04;;;;;;;7.78;1.95;;;11.20;99.90;;;;;;5057533;28;20036;-66
2022/11/09 04:22:29;;;;;;;8.38;1.75;;;11.20;99.90;;;;;;5061022;28;20032;-66
2022/11/09 04:24:55;;;;;;;4.95;1.60;;;11.20;99.90;;;;;;5057956;28;20051;-66
2022/11/09 04:27:21;;;;;;;7.05;1.75;;;11.20;99.90;;;;;;5060162;28;20033;-66
2022/11/09 04:29:46;;;;;;;9.20;1.58;;;11.30;99.90;;;;;;5059193;28;20045;-66
2022/11/09 04:32:12;;;;;;;6.88;1.63;;;11.30;99.90;;;;;;5057416;28;20097;-66
2022/11/09 04:34:40;;;;;;;7.80;1.52;;;11.30;99.90;;;;;;5059836;28;20051;-66
2022/11/09 04:37:06;;;;;;;8.40;1.70;;;11.30;99.90;;;;;;5055268;28;20066;-66
2022/11/09 04:39:31;;;;;;;11.90;2.70;;;11.20;99.90;;;;;;5059339;28;20070;-66
2022/11/09 04:41:57;;;;;;;8.27;1.98;;;11.20;99.90;;;;;;5058896;28;20033;-66
2022/11/09 04:44:23;;;;;;;11.13;1.75;;;11.20;99.90;;;;;;5041858;28;20388;-66
2022/11/09 04:46:49;;;;;;;5.70;1.50;;;11.10;99.90;;;;;;5055941;28;20028;-66
2022/11/09 04:49:14;;;;;;;7.00;1.83;;;11.10;99.90;;;;;;5064046;28;20042;-66
2022/11/09 04:51:40;;;;;;;10.02;1.88;;;11.10;99.90;;;;;;5059176;28;20492;-67
2022/11/09 04:54:06;;;;;;;7.43;1.73;;;11.10;99.90;;;;;;5041801;28;20044;-66
2022/11/09 04:56:31;;;;;;;6.25;1.50;;;11.10;99.90;;;;;;5059034;28;20029;-67
2022/11/09 04:58:57;;;;;;;9.32;1.60;;;11.10;99.90;;;;;;5062519;28;20033;-66
2022/11/09 05:01:23;;;;;;;7.70;1.90;;;11.10;99.90;;;;;;5042080;28;20044;-66
2022/11/09 05:03:49;;;;;;;9.65;1.80;;;11.10;99.90;;;;;;5058660;28;20036;-66
2022/11/09 05:06:32;;;;;;;10.68;1.83;;;11.20;99.90;;;;;;5056518;28;20044;-66
2022/11/09 05:09:03;;;;;;;8.50;1.77;;;11.30;99.90;;;;;;5061282;28;20036;-66
2022/11/09 05:11:30;;;;;;;6.20;1.80;;;11.30;99.90;;;;;;5061090;28;20040;-66
2022/11/09 05:13:56;;;;;;;6.13;1.75;;;11.30;99.90;;;;;;5049008;28;20396;-66
2022/11/09 05:16:23;;;;;;;5.70;1.38;;;11.30;99.90;;;;;;5052256;28;20353;-66
2022/11/09 05:18:49;;;;;;;10.75;1.88;;;11.40;99.90;;;;;;5043133;28;20048;-66
2022/11/09 05:21:15;;;;;;;4.32;1.60;;;11.40;99.90;;;;;;5057085;28;20412;-67
2022/11/09 05:23:59;;;;;;;6.85;1.77;;;11.40;99.90;;;;;;5021214;28;20098;-66
2022/11/09 05:26:43;;;;;;;7.50;1.88;;;11.40;99.90;;;;;;5055746;28;20087;-66
2022/11/09 05:29:11;;;;;;;9.15;1.90;;;11.50;99.90;;;;;;5061963;28;20039;-66
2022/11/09 05:31:38;;;;;;;6.50;1.48;;;11.40;99.90;;;;;;5039118;28;20064;-66
2022/11/09 05:34:05;;;;;;;7.18;1.50;;;11.40;99.90;;;;;;5041473;28;20048;-66
2022/11/09 05:36:32;;;;;;;49.28;39.78;;;11.40;99.90;;;;;;5045323;28;20045;-66
2022/11/09 05:38:58;;;;;;;9.27;3.58;;;11.40;99.90;;;;;;5063498;28;20101;-66
2022/11/09 05:41:25;;;;;;;6.95;1.98;;;11.30;99.90;;;;;;5060370;28;20040;-66
2022/11/09 05:43:51;;;;;;;7.57;2.72;;;11.30;99.90;;;;;;5054464;28;20037;-66
2022/11/09 05:46:18;;;;;;;7.50;1.83;;;11.30;99.90;;;;;;5056687;28;20496;-66
2022/11/09 05:48:44;;;;;;;6.78;1.63;;;11.30;99.90;;;;;;5057502;28;20162;-66
2022/11/09 05:51:11;;;;;;;8.65;2.03;;;11.30;99.90;;;;;;5064538;28;20400;-66
2022/11/09 05:53:37;;;;;;;5.50;1.77;;;11.30;99.90;;;;;;5064841;28;20476;-67
2022/11/09 05:56:09;;;;;;;9.82;1.63;;;11.30;99.90;;;;;;5040339;28;20045;-67
2022/11/09 05:58:37;;;;;;;8.75;1.98;;;11.20;99.90;;;;;;5056129;28;20511;-67
2022/11/09 06:01:08;;;;;;;9.85;1.58;;;11.20;99.90;;;;;;5028237;28;20071;-66
2022/11/09 06:03:34;;;;;;;6.70;1.38;;;11.10;99.90;;;;;;5040190;28;20177;-67
2022/11/09 06:06:05;;;;;;;7.93;1.27;;;11.10;99.90;;;;;;5061050;28;20063;-66
2022/11/09 06:08:31;;;;;;;8.07;1.88;;;11.10;99.90;;;;;;5057924;28;20036;-66
2022/11/09 06:10:59;;;;;;;13.90;3.22;;;11.00;99.90;;;;;;5056928;28;20037;-66
2022/11/09 06:13:24;;;;;;;7.93;1.80;;;11.00;99.90;;;;;;5060319;28;20049;-66
2022/11/09 06:15:58;;;;;;;6.07;1.65;;;11.00;99.90;;;;;;5056677;28;20056;-67
2022/11/09 06:18:25;;;;;;;7.75;2.00;;;10.90;99.90;;;;;;5066390;28;20052;-66
2022/11/09 06:20:56;;;;;;;6.50;1.33;;;11.00;99.90;;;;;;5063911;28;20214;-67
2022/11/09 06:23:24;;;;;;;11.65;1.83;;;11.00;99.90;;;;;;5064059;28;20565;-67
2022/11/09 06:26:00;;;;;;;8.77;1.70;;;10.90;99.90;;;;;;5062245;28;20040;-66
2022/11/09 06:28:26;;;;;;;10.25;2.17;;;10.90;99.90;;;;;;5061387;28;20052;-66
2022/11/09 06:30:55;;;;;;;9.43;1.88;;;10.90;99.90;;;;;;5047578;28;20111;-66
2022/11/09 06:33:21;;;;;;;13.00;1.83;;;11.00;99.90;;;;;;5061300;28;20112;-66
2022/11/09 06:35:46;;;;;;;11.32;2.10;;;11.00;99.90;;;;;;5042733;28;20141;-67
2022/11/09 06:38:12;;;;;;;9.23;1.40;;;11.00;99.90;;;;;;5064495;28;20329;-67
2022/11/09 06:40:38;;;;;;;7.20;1.80;;;11.00;99.90;;;;;;5064505;28;20083;-67
2022/11/09 06:43:04;;;;;;;9.68;1.58;;;11.00;99.90;;;;;;5050451;28;20060;-66
2022/11/09 06:45:30;;;;;;;8.98;1.88;;;11.00;99.90;;;;;;5053167;28;20044;-67
2022/11/09 06:48:01;;;;;;;14.25;1.67;;;11.00;99.90;;;;;;5041999;28;20143;-67
2022/11/09 06:50:30;;;;;;;9.55;2.10;;;11.00;99.90;;;;;;5062823;28;20136;-67
2022/11/09 06:53:04;;;;;;;7.18;1.48;;;11.00;99.90;;;;;;5061797;28;20055;-67
2022/11/09 06:55:32;;;;;;;8.88;1.83;;;11.00;99.90;;;;;;5042826;28;20049;-67
2022/11/09 06:57:58;;;;;;;8.88;1.90;;;10.90;99.90;;;;;;5063886;28;20039;-67
2022/11/09 07:00:25;;;;;;;9.40;1.58;;;10.90;99.90;;;;;;5061153;28;20128;-67
2022/11/09 07:02:51;;;;;;;10.50;1.83;;;10.90;99.90;;;;;;5055471;28;20151;-67
2022/11/09 07:05:17;;;;;;;7.20;1.63;;;10.90;99.90;;;;;;5055340;28;20055;-67
2022/11/09 07:07:43;;;;;;;9.43;1.88;;;10.90;99.90;;;;;;5056091;28;20080;-66
2022/11/09 07:10:09;;;;;;;10.70;2.15;;;10.80;99.90;;;;;;5057644;28;20095;-67
2022/11/09 07:12:35;;;;;;;9.93;1.88;;;10.80;99.90;;;;;;5054675;28;20052;-67
2022/11/09 07:15:02;;;;;;;7.32;1.65;;;10.70;99.90;;;;;;5060152;28;20036;-66
2022/11/09 07:17:31;;;;;;;8.30;1.70;;;10.80;99.90;;;;;;5062646;28;20029;-66
2022/11/09 07:19:57;;;;;;;8.88;1.25;;;10.80;99.90;;;;;;5059682;28;20037;-66
2022/11/09 07:22:26;;;;;;;9.95;1.77;;;10.80;99.90;;;;;;5063323;28;20122;-66
2022/11/09 07:24:55;;;;;;;12.05;1.77;;;10.80;99.90;;;;;;5064550;28;20133;-66
2022/11/09 07:27:22;;;;;;;9.18;1.73;;;10.90;99.90;;;;;;5059977;28;20400;-66
2022/11/09 07:29:47;;;;;;;11.80;1.90;;;10.90;99.90;;;;;;5056436;28;20060;-66
2022/11/09 07:32:13;;;;;;;6.90;1.52;;;11.10;99.90;;;;;;5063225;28;20087;-67
2022/11/09 07:34:39;;;;;;;11.93;1.73;;;11.50;99.90;;;;;;5058118;28;20048;-67
2022/11/09 07:37:04;;;;;;;8.00;1.63;;;11.80;99.90;;;;;;5055507;28;20436;-66
2022/11/09 07:39:30;;;;;;;6.43;1.83;;;12.00;99.90;;;;;;5058628;28;20044;-67
2022/11/09 07:41:56;;;;;;;9.82;1.88;;;12.20;99.90;;;;;;5060991;28;20037;-67
2022/11/09 07:44:22;;;;;;;9.02;1.85;;;12.40;99.90;;;;;;5060198;28;20052;-67
2022/11/09 07:46:48;;;;;;;10.25;2.03;;;12.30;99.90;;;;;;5059581;28;20432;-67
2022/11/09 07:49:15;;;;;;;8.40;1.83;;;12.30;99.90;;;;;;5056681;28;20087;-67
2022/11/09 07:51:42;;;;;;;11.85;1.85;;;12.20;99.90;;;;;;5057423;28;20445;-67
2022/11/09 07:54:09;;;;;;;7.97;1.85;;;12.10;99.90;;;;;;5057052;28;20266;-68
2022/11/09 07:56:35;;;;;;;8.40;1.90;;;12.20;99.90;;;;;;5055368;28;20036;-68
2022/11/09 07:59:01;;;;;;;8.38;2.05;;;12.60;99.90;;;;;;5064425;28;20040;-68
2022/11/09 08:01:26;;;;;;;10.93;1.63;;;13.10;99.90;;;;;;5061323;28;20029;-66
2022/11/09 08:03:53;;;;;;;13.18;2.53;;;13.60;99.90;;;;;;5057925;28;20040;-67
2022/11/09 08:06:19;;;;;;;11.32;2.00;;;14.30;99.90;;;;;;5056803;28;20047;-68
2022/11/09 08:08:45;;;;;;;14.23;1.95;;;15.00;99.90;;;;;;5036982;28;20041;-67
2022/11/09 08:11:11;;;;;;;8.32;2.00;;;15.60;99.90;;;;;;5043796;28;20090;-68
2022/11/09 08:13:37;;;;;;;7.97;1.80;;;16.10;99.90;;;;;;5059818;28;20040;-67
2022/11/09 08:16:03;;;;;;;11.80;2.13;;;16.50;99.90;;;;;;5059198;28;20032;-67
2022/11/09 08:18:29;;;;;;;10.18;2.33;;;16.60;99.90;;;;;;5056866;28;20052;-67
2022/11/09 08:20:55;;;;;;;7.32;1.75;;;16.80;99.90;;;;;;5062856;28;20048;-68
2022/11/09 08:23:21;;;;;;;10.07;2.03;;;17.20;99.90;;;;;;5059415;28;20116;-67
2022/11/09 08:25:48;;;;;;;9.85;1.80;;;17.50;99.90;;;;;;5031283;28;20044;-67
2022/11/09 08:28:15;;;;;;;9.07;1.77;;;17.70;99.90;;;;;;5041782;28;20040;-68
2022/11/09 08:30:42;;;;;;;12.90;2.10;;;17.90;99.90;;;;;;5065932;28;20372;-67
2022/11/09 08:33:08;;;;;;;7.63;2.05;;;18.20;99.90;;;;;;5038420;28;20048;-68
2022/11/09 08:35:33;;;;;;;11.57;2.38;;;18.60;99.90;;;;;;5063738;28;20028;-68
2022/11/09 08:38:02;;;;;;;9.88;2.58;;;19.00;99.90;;;;;;5061526;28;20122;-67
2022/11/09 08:40:28;;;;;;;10.40;2.22;;;19.40;99.90;;;;;;5048435;28;20043;-67
2022/11/09 08:42:54;;;;;;;10.30;1.95;;;19.70;99.90;;;;;;5058019;28;20033;-67
2022/11/09 08:45:20;;;;;;;8.93;2.45;;;19.90;99.90;;;;;;5056520;28;20039;-67
2022/11/09 08:47:46;;;;;;;12.13;2.63;;;20.20;99.90;;;;;;5059794;28;20119;-68
2022/11/09 08:50:13;;;;;;;6.95;1.90;;;20.50;99.90;;;;;;5059864;28;20384;-67
2022/11/09 08:52:39;;;;;;;10.20;1.95;;;20.80;99.90;;;;;;5056786;28;20072;-68
2022/11/09 08:55:06;;;;;;;6.75;1.92;;;21.10;99.90;;;;;;5051003;28;20036;-68
2022/11/09 08:57:32;;;;;;;9.07;2.00;;;21.20;99.90;;;;;;5060666;28;20399;-68
2022/11/09 08:59:58;;;;;;;9.82;2.42;;;21.40;99.90;;;;;;5056720;28;20606;-67
2022/11/09 09:02:24;;;;;;;8.63;1.70;;;21.40;99.90;;;;;;5065060;28;20219;-67
2022/11/09 09:04:49;;;;;;;6.68;1.70;;;21.50;99.90;;;;;;5057263;28;20036;-68
2022/11/09 09:07:15;;;;;;;11.45;2.25;;;21.50;98.80;;;;;;5055952;28;20045;-68
2022/11/09 09:09:41;;;;;;;10.70;2.10;;;21.60;98.90;;;;;;5057797;28;20028;-67
2022/11/09 09:12:08;;;;;;;9.15;2.17;;;21.40;98.30;;;;;;5060489;28;20044;-67
2022/11/09 09:14:34;;;;;;;9.32;1.95;;;21.20;98.20;;;;;;5061154;28;20167;-68
2022/11/09 09:17:00;;;;;;;8.65;2.13;;;21.20;98.10;;;;;;5063032;28;20059;-67
2022/11/09 09:19:26;;;;;;;8.55;2.22;;;21.30;98.00;;;;;;5057958;28;20033;-67
2022/11/09 09:21:52;;;;;;;7.63;2.28;;;21.10;97.60;;;;;;5062977;28;20032;-67
2022/11/09 09:24:17;;;;;;;13.77;2.80;;;20.90;98.30;;;;;;5062254;28;20024;-67
2022/11/09 09:26:45;;;;;;;8.23;2.40;;;20.20;97.80;;;;;;5062156;28;20036;-67
2022/11/09 09:29:12;;;;;;;11.45;2.13;;;19.50;98.20;;;;;;5063943;28;20353;-68
2022/11/09 09:31:39;;;;;;;9.23;2.17;;;19.20;99.50;;;;;;5059981;28;20470;-67
2022/11/09 09:34:05;;;;;;;10.05;2.30;;;18.80;99.90;;;;;;5040411;28;20033;-67
2022/11/09 09:36:30;;;;;;;11.32;2.63;;;19.20;99.90;;;;;;5057536;28;20051;-67
2022/11/09 09:38:57;;;;;;;8.63;2.20;;;19.30;99.90;;;;;;5062477;28;20119;-67
2022/11/09 09:41:34;;;;;;;9.82;2.38;;;19.10;99.90;;;;;;5055856;28;20045;-67
2022/11/09 09:44:44;;;;;;;9.07;2.42;;;19.10;99.90;;;;;;5059254;28;20079;-67
2022/11/09 09:47:21;;;;;;;9.52;2.53;;;19.40;99.90;;;;;;5039322;28;20500;-67
2022/11/09 09:49:59;;;;;;;7.32;2.08;;;19.70;99.90;;;;;;5058676;28;20135;-68
2022/11/09 09:52:55;;;;;;;8.90;2.60;;;19.50;99.90;;;;;;5066117;28;20455;-67
2022/11/09 09:55:33;;;;;;;9.35;1.77;;;19.50;99.90;;;;;;5062826;28;20098;-67
2022/11/09 09:58:06;;;;;;;9.05;2.13;;;19.00;99.90;;;;;;5051189;28;20336;-67
2022/11/09 10:00:34;;;;;;;11.02;2.35;;;18.80;99.90;;;;;;5059426;28;20032;-67
2022/11/09 10:03:00;;;;;;;8.00;2.15;;;19.10;99.90;;;;;;5064778;28;20058;-67
2022/11/09 10:05:47;;;;;;;13.32;2.45;;;19.30;99.90;;;;;;5066700;28;20152;-68
2022/11/09 10:08:19;;;;;;;11.45;2.42;;;19.00;99.50;;;;;;5066531;28;20080;-67
2022/11/09 10:11:06;;;;;;;9.93;2.35;;;18.60;99.90;;;;;;5061740;28;20051;-67
2022/11/09 10:13:57;;;;;;;7.65;2.13;;;18.00;99.90;;;;;;5065698;28;20117;-66
2022/11/09 10:16:58;;;;;;;9.38;2.35;;;17.30;99.90;;;;;;5043298;28;20049;-67
2022/11/09 10:20:03;;;;;;;6.20;1.80;;;16.80;99.90;;;;;;5060169;28;20048;-66
2022/11/09 10:22:46;;;;;;;8.20;2.35;;;16.40;99.90;;;;;;5056280;28;20052;-67
2022/11/09 10:25:23;;;;;;;11.75;2.30;;;16.00;99.90;;;;;;5067525;28;20040;-67
2022/11/09 10:27:55;;;;;;;11.82;2.08;;;15.80;99.90;;;;;;5062289;28;20484;-67
2022/11/09 10:30:23;;;;;;;10.38;2.42;;;15.60;99.90;;;;;;5065671;28;20093;-66
2022/11/09 10:33:12;;;;;;;9.05;2.05;;;15.50;99.90;;;;;;5058498;28;20033;-66
2022/11/09 10:36:06;;;;;;;10.10;2.13;;;15.50;99.90;;;;;;5057827;28;20082;-67
2022/11/09 10:38:39;;;;;;;10.00;2.33;;;15.40;99.90;;;;;;5045121;28;20056;-66
2022/11/09 10:41:27;;;;;;;7.65;1.80;;;15.20;99.90;;;;;;5066955;28;20123;-67
2022/11/09 10:43:53;;;;;;;12.80;2.85;;;15.20;99.90;;;;;;5063326;28;20044;-66
2022/11/09 10:46:20;;;;;;;8.40;1.80;;;15.00;99.90;;;;;;5066353;28;20043;-67
2022/11/09 10:48:46;;;;;;;13.30;1.98;;;14.80;99.90;;;;;;5057668;28;20044;-67
2022/11/09 10:51:31;;;;;;;13.57;2.45;;;14.80;99.90;;;;;;5064920;28;20029;-66
2022/11/09 10:54:17;;;;;;;12.25;2.47;;;14.80;99.90;;;;;;5062654;28;20054;-67
2022/11/09 10:57:02;;;;;;;11.10;2.20;;;14.80;99.90;;;;;;5061924;28;20041;-66
2022/11/09 10:59:33;;;;;;;10.43;3.03;;;14.90;99.90;;;;;;5061644;28;20131;-67
2022/11/09 11:01:59;;;;;;;10.52;2.22;;;15.00;99.90;;;;;;5060568;28;20028;-66
2022/11/09 11:04:25;;;;;;;10.07;2.30;;;15.10;99.90;;;;;;5061018;28;20090;-66
2022/11/09 11:06:51;;;;;;;10.75;2.20;;;15.10;99.90;;;;;;5059950;28;20047;-66
2022/11/09 11:09:19;;;;;;;9.20;2.20;;;15.10;99.90;;;;;;5055939;28;20033;-66
2022/11/09 11:11:45;;;;;;;10.07;2.50;;;15.10;99.90;;;;;;5063913;28;20037;-66
2022/11/09 11:14:26;;;;;;;10.70;2.17;;;15.00;99.90;;;;;;5064110;28;20035;-66
2022/11/09 11:16:53;;;;;;;10.68;1.83;;;15.10;99.90;;;;;;5065661;28;20128;-65
2022/11/09 11:19:43;;;;;;;11.40;2.67;;;15.10;99.90;;;;;;5063091;28;21051;-66
2022/11/09 11:22:17;;;;;;;11.25;1.92;;;15.20;99.90;;;;;;5047335;28;20525;-67
2022/11/09 11:24:55;;;;;;;;;;;15.30;99.90;;;;;;5062226;28;20052;-67
2022/11/09 11:27:42;;;;;;;11.00;2.17;;;15.40;99.90;;;;;;5065049;28;19938;-67
2022/11/09 11:30:09;;;;;;;10.90;2.20;;;15.40;99.90;;;;;;5059408;28;20041;-68
2022/11/09 11:32:35;;;;;;;8.70;1.90;;;15.30;99.90;;;;;;5061596;28;20145;-67
2022/11/09 11:35:04;;;;;;;10.10;1.77;;;15.30;99.90;;;;;;5061279;28;20079;-64
2022/11/09 11:37:46;;;;;;;11.07;2.00;;;15.20;99.90;;;;;;5066588;28;20046;-65
2022/11/09 11:40:22;;;;;;;9.50;1.75;;;15.00;99.90;;;;;;5060749;28;20484;-64
2022/11/09 11:43:14;;;;;;;12.45;2.10;;;14.90;99.90;;;;;;5062860;28;20088;-67
2022/11/09 11:46:02;;;;;;;8.40;1.55;;;14.80;99.90;;;;;;5063871;28;20128;-67
2022/11/09 11:48:57;;;;;;;10.20;2.10;;;14.70;99.90;;;;;;5060180;28;20103;-67
2022/11/09 11:51:32;;;;;;;;;;;14.50;99.90;;;;;;5063576;28;20144;-67
2022/11/09 11:54:18;;;;;;;11.87;2.30;;;14.40;99.90;;;;;;5060618;28;20383;-67
2022/11/09 11:57:10;;;;;;;8.40;1.90;;;14.40;99.90;;;;;;5039796;28;20068;-68
2022/11/09 12:00:00;;;;;;;10.18;1.95;;;14.40;99.90;;;;;;5057446;28;20064;-67
2022/11/09 12:02:55;;;;;;;10.15;1.70;;;14.60;99.90;;;;;;5058837;28;20044;-64
2022/11/09 12:05:49;;;;;;;9.00;1.83;;;14.80;99.90;;;;;;5061795;28;20051;-64
2022/11/09 12:08:41;;;;;;;6.75;1.80;;;14.80;99.90;;;;;;5061596;28;20067;-66
2022/11/09 12:11:12;;;;;;;8.85;1.50;;;14.80;99.90;;;;;;5050404;28;20493;-66
2022/11/09 12:13:49;;;;;;;10.48;3.50;;;14.70;99.90;;;;;;5076997;28;20044;-66
2022/11/09 12:16:24;;;;;;;37.05;29.70;;;14.70;99.90;;;;;;5061351;28;20372;-66
2022/11/09 12:18:56;;;;;;;9.55;1.75;;;14.60;99.90;;;;;;5050058;28;20029;-66
2022/11/09 12:21:30;;;;;;;10.18;3.05;;;14.50;99.90;;;;;;5056060;28;20095;-66
2022/11/09 12:24:11;;;;;;;7.10;2.13;;;14.50;99.90;;;;;;5061411;28;20131;-66
2022/11/09 12:26:39;;;;;;;9.50;1.50;;;14.50;99.90;;;;;;5063377;28;20559;-66
2022/11/09 12:29:20;;;;;;;7.93;1.63;;;14.50;99.90;;;;;;5064078;28;20049;-68
2022/11/09 12:32:16;;;;;;;12.25;1.70;;;14.50;99.90;;;;;;5059499;28;20051;-66
2022/11/09 12:34:56;;;;;;;12.65;1.60;;;14.60;99.90;;;;;;5061222;28;20094;-67
2022/11/09 12:37:34;;;;;;;7.10;1.35;;;14.60;99.90;;;;;;5064495;28;20047;-67
2022/11/09 12:40:29;;;;;;;10.02;1.80;;;14.60;99.90;;;;;;5044221;28;20044;-67
2022/11/09 12:43:16;;;;;;;;;;;14.60;99.90;;;;;;5038729;28;20048;-67
2022/11/09 12:45:43;;;;;;;9.05;1.90;;;14.60;99.90;;;;;;5062991;28;19963;-67
2022/11/09 12:48:31;;;;;;;6.75;1.45;;;14.50;99.90;;;;;;5062785;28;20034;-67
2022/11/09 12:50:59;;;;;;;8.23;1.65;;;14.40;99.90;;;;;;5061375;28;20094;-67
2022/11/09 12:53:31;;;;;;;8.30;1.65;;;14.40;99.90;;;;;;5058418;28;20036;-67
2022/11/09 12:55:59;;;;;;;6.55;1.63;;;14.30;99.90;;;;;;5057404;28;20052;-66
2022/11/09 12:58:28;;;;;;;10.05;1.63;;;14.20;99.90;;;;;;5060202;28;20079;-67
2022/11/09 13:01:02;;;;;;;7.05;1.33;;;14.10;99.90;;;;;;5059235;28;20087;-66